Latest Weather Observations for Southern Cross Airport

IDW60801

Issued at 9:35 am WST Saturday 1 November 2014 (issued every 30 minutes, with the page automatically refreshed every 10 minutes)

About weather observations | Map of weather stations | Latest weather observations for WA | Other Formats
Station Details ID: 012320 Name: SOUTHERN CROSS AIRFIELD Lat: -31.24 Lon: 119.36 Height: 347.4 m
Data from the previous 72 hours. | See also: Recent months at Southern Cross Airport
Date/Time
WST
Temp
°C
App
Temp
°C
Dew
Point
Rel
Hum
%
Delta-T
°C
Wind Press
QNH
hPa
Press
MSL
hPa
Rain
since 9 am
mm
Dir
 
Spd
km/h
Gust
km/h
Spd
kts
Gust
kts
01/09:30am 18.7 13.9 4.8 40 6.8 NE 19 24 10 13 1021.5 1020.1 0.0
01/09:00am 17.4 13.0 4.7 43 6.1 ENE 17 24 9 13 1021.7 1020.3 0.0
01/08:30am 16.7 12.0 5.0 46 5.7 ENE 19 24 10 13 1021.8 1020.4 0.0
01/08:00am 15.4 10.1 4.8 49 5.1 ENE 22 30 12 16 1021.7 1020.3 0.0
01/07:30am 14.4 9.4 4.7 52 4.6 ENE 20 28 11 15 1021.8 1021.0 0.0
01/07:00am 13.5 8.1 4.6 55 4.2 ENE 22 28 12 15 1021.6 1020.8 0.0
01/06:30am 12.4 8.3 4.4 58 3.7 E 15 24 8 13 1021.5 1020.7 0.0
01/06:00am 11.5 7.5 4.7 63 3.1 E 15 22 8 12 1021.3 1020.4 0.0
01/05:30am 10.8 7.5 4.7 66 2.8 E 11 15 6 8 1020.9 1020.0 0.0
01/05:00am 10.7 7.0 4.6 66 2.8 E 13 22 7 12 1020.5 1019.7 0.0
01/04:30am 11.0 7.0 4.9 66 2.8 E 15 24 8 13 1020.3 1019.5 0.0
01/04:00am 11.3 7.7 5.0 65 2.9 E 13 24 7 13 1019.9 1019.1 0.0
01/03:30am 11.6 8.0 5.0 64 3.1 ESE 13 24 7 13 1019.5 1018.7 0.0
01/03:00am 11.9 8.3 5.1 63 3.2 ESE 13 17 7 9 1019.5 1018.7 0.0
01/02:30am 12.4 8.5 5.3 62 3.4 ESE 15 22 8 12 1019.3 1018.5 0.0
01/02:00am 12.9 8.2 5.3 60 3.6 ESE 19 26 10 14 1019.1 1018.3 0.0
01/01:30am 13.3 9.1 5.5 59 3.7 ESE 17 24 9 13 1019.0 1018.2 0.0
01/01:00am 13.9 8.3 5.5 57 4.0 ESE 24 32 13 17 1018.8 1017.9 0.0
01/12:30am 14.5 8.9 5.3 54 4.4 SE 24 32 13 17 1019.0 1018.2 0.0
01/12:00am 15.2 9.2 5.1 51 4.8 SE 26 35 14 19 1019.1 1018.3 0.0
 
Date/Time
WST
Temp
°C
App
Temp
°C
Dew
Point
Rel
Hum
%
Delta-T
°C
Wind Press
QNH
hPa
Press
MSL
hPa
Rain
since 9 am
mm
Dir
 
Spd
km/h
Gust
km/h
Spd
kts
Gust
kts
31/11:30pm 15.8 10.8 4.5 47 5.4 SE 20 32 11 17 1018.9 1018.0 0.0
31/11:00pm 16.4 10.9 3.8 43 5.9 SE 22 30 12 16 1018.7 1017.8 0.0
31/10:30pm 17.0 10.7 3.7 41 6.3 SE 26 32 14 17 1018.5 1017.6 0.0
31/10:00pm 17.7 11.4 3.6 39 6.7 ESE 26 35 14 19 1018.4 1017.5 0.0
31/09:30pm 18.5 12.2 3.6 37 7.1 SE 26 33 14 18 1018.3 1017.4 0.0
31/09:00pm 19.1 13.9 3.7 36 7.4 ESE 20 28 11 15 1018.2 1017.3 0.0
31/08:30pm 19.5 14.9 3.6 35 7.7 SE 17 22 9 12 1017.9 1017.0 0.0
31/08:00pm 20.1 16.0 2.5 31 8.3 S 13 15 7 8 1017.4 1016.6 0.0
31/07:30pm 20.4 17.1 2.7 31 8.4 S 9 13 5 7 1017.1 1016.3 0.0
31/07:00pm 21.5 17.3 1.7 27 9.3 S 13 15 7 8 1016.6 1015.8 0.0
31/06:30pm 22.5 18.0 2.1 26 9.8 S 15 19 8 10 1016.1 1015.2 0.0
31/06:00pm 23.1 18.7 2.6 26 9.9 S 15 20 8 11 1015.8 1014.9 0.0
31/05:30pm 23.4 18.6 2.8 26 10.0 S 17 22 9 12 1015.6 1014.7 0.0
31/05:00pm 24.3 18.9 2.5 24 10.6 SSW 20 26 11 14 1015.3 1014.4 0.0
31/04:30pm 24.5 20.7 3.8 26 10.4 SSE 13 24 7 13 1015.2 1014.3 0.0
31/04:00pm 23.9 18.2 2.7 25 10.3 S 22 32 12 17 1015.1 1014.2 0.0
31/03:30pm 23.7 18.8 4.1 28 9.8 S 19 28 10 15 1014.9 1014.0 0.0
31/03:00pm 23.4 19.7 4.4 29 9.5 S 13 24 7 13 1014.9 1014.0 0.0
31/02:30pm 23.3 19.3 4.8 30 9.4 S 15 26 8 14 1014.9 1014.0 0.0
31/02:00pm 23.4 18.5 4.9 30 9.4 SE 20 26 11 14 1015.0 1014.1 0.0
31/01:30pm 22.4 17.2 5.4 33 8.6 S 22 30 12 16 1015.3 1014.4 0.0
31/01:00pm 21.7 16.9 5.6 35 8.2 S 20 30 11 16 1015.6 1014.7 0.0
31/12:30pm 21.3 17.2 6.4 38 7.7 S 17 28 9 15 1015.7 1014.8 0.0
31/12:00pm 20.8 15.3 7.4 42 7.0 SSE 26 37 14 20 1015.9 1015.0 0.0
31/11:30am 19.6 14.2 8.0 47 6.1 SSW 26 35 14 19 1016.0 1015.1 0.0
31/11:00am 19.5 14.7 8.8 50 5.7 S 24 32 13 17 1016.0 1015.1 0.0
31/10:30am 19.4 14.6 9.0 51 5.6 S 24 33 13 18 1016.1 1015.2 0.0
31/10:00am 18.2 14.3 9.5 57 4.7 S 20 32 11 17 1016.2 1015.3 0.0
31/09:30am 16.9 12.2 9.3 61 4.0 S 24 33 13 18 1016.3 1015.4 0.0
31/09:00am 16.4 12.2 9.8 65 3.5 SSW 22 28 12 15 1016.0 1015.1 0.0
31/08:30am 15.9 11.0 10.0 68 3.1 S 26 35 14 19 1015.9 1015.0 0.0
31/08:00am 15.8 11.6 9.9 68 3.1 SSW 22 30 12 16 1015.7 1014.8 0.0
31/07:30am 15.1 11.3 9.9 71 2.8 SSW 20 26 11 14 1015.6 1014.7 0.0
31/07:00am 14.0 10.6 9.2 73 2.5 SW 17 26 9 14 1015.3 1014.4 0.0
31/06:30am 13.0 10.6 8.5 74 2.3 SW 11 15 6 8 1015.3 1014.4 0.0
31/06:00am 12.0 10.3 8.5 79 1.8 SSW 7 9 4 5 1015.1 1014.2 0.0
31/05:30am 11.3 9.5 8.0 80 1.6 WSW 7 9 4 5 1014.5 1013.7 0.0
31/05:00am 11.4 8.8 7.9 79 1.7 WSW 11 15 6 8 1014.1 1013.3 0.0
31/04:30am 11.4 8.8 7.9 79 1.7 WSW 11 15 6 8 1013.7 1012.8 0.0
31/04:00am 12.1 8.8 8.0 76 2.0 WSW 15 20 8 11 1013.5 1012.6 0.0
31/03:30am 12.0 8.7 7.9 76 2.0 WSW 15 19 8 10 1013.5 1012.6 0.0
31/03:00am 12.2 8.2 8.1 76 2.1 WSW 19 24 10 13 1013.4 1012.5 0.0
31/02:30am 12.6 8.9 8.1 74 2.3 WSW 17 22 9 12 1013.3 1012.4 0.0
31/02:00am 12.9 8.9 8.2 73 2.4 WSW 19 28 10 15 1013.1 1012.2 0.0
31/01:30am 13.3 9.1 8.2 71 2.6 SW 20 28 11 15 1013.1 1012.2 0.0
31/01:00am 13.7 9.1 8.3 70 2.7 SW 22 32 12 17 1013.2 1012.3 0.0
31/12:30am 14.3 8.6 8.5 68 3.0 SW 28 39 15 21 1013.2 1012.3 0.0
31/12:00am 15.3 9.6 8.5 64 3.5 SW 28 37 15 20 1013.4 1012.5 0.0
 
Date/Time
WST
Temp
°C
App
Temp
°C
Dew
Point
Rel
Hum
%
Delta-T
°C
Wind Press
QNH
hPa
Press
MSL
hPa
Rain
since 9 am
mm
Dir
 
Spd
km/h
Gust
km/h
Spd
kts
Gust
kts
30/11:30pm 16.1 12.0 8.6 61 3.9 SW 20 30 11 16 1013.3 1012.4 0.0
30/11:00pm 16.9 11.6 8.6 58 4.3 SW 26 35 14 19 1013.1 1012.2 0.0
30/10:30pm 18.3 11.7 8.6 53 5.1 SW 33 44 18 24 1012.7 1011.8 0.0
30/10:00pm 19.8 14.1 8.2 47 6.1 SW 28 39 15 21 1012.4 1011.5 0.0
30/09:30pm 21.1 14.9 7.7 42 7.1 WSW 30 44 16 24 1012.0 1011.1 0.0
30/09:00pm 22.2 16.1 8.3 41 7.5 WSW 30 39 16 21 1011.7 1010.8 0.0
30/08:30pm 23.1 18.0 9.1 41 7.6 WSW 26 37 14 20 1011.3 1010.4 0.0
30/08:18pm 23.6 18.1 9.2 40 7.9 WSW 28 46 15 25 1011.1 1010.2 0.0
30/08:00pm 24.2 19.3 8.6 37 8.5 W 24 33 13 18 1010.7 1009.8 0.0
30/07:30pm 25.5 21.1 7.6 32 9.6 W 20 30 11 16 1010.2 1009.3 0.0
30/07:00pm 26.3 21.5 8.8 33 9.7 W 24 33 13 18 1009.8 1008.9 0.0
30/06:30pm 27.1 21.9 9.0 32 10.1 W 26 35 14 19 1009.4 1008.5 0.0
30/06:00pm 28.4 21.8 5.9 24 12.0 WNW 30 43 16 23 1008.9 1007.9 0.0
30/05:30pm 29.3 22.7 6.0 23 12.5 WNW 30 43 16 23 1008.6 1007.6 0.0
30/05:00pm 30.1 23.4 5.4 21 13.2 W 30 39 16 21 1008.2 1007.3 0.0
30/04:42pm 30.4 23.9 4.9 20 13.5 W 28 48 15 26 1008.2 1007.3 0.0
30/04:30pm 30.5 24.0 6.4 22 13.1 W 30 41 16 22 1008.2 1007.3 0.0
30/04:00pm 31.0 24.6 6.8 22 13.3 W 30 44 16 24 1008.2 1007.3 0.0
30/03:30pm 31.0 24.5 8.1 24 12.8 W 32 44 17 24 1008.2 1007.3 0.0
30/03:00pm 31.2 24.6 7.6 23 13.1 WNW 32 43 17 23 1008.4 1007.5 0.0
30/02:30pm 30.9 25.3 8.6 25 12.6 W 28 43 15 23 1008.7 1007.7 0.0
30/02:00pm 31.0 26.0 10.9 29 11.8 WNW 28 39 15 21 1008.9 1007.9 0.0
30/01:30pm 30.9 26.7 12.3 32 11.1 W 26 37 14 20 1009.3 1008.4 0.0
30/01:00pm 30.6 27.3 11.5 30 11.3 W 20 37 11 20 1009.6 1008.7 0.0
30/12:30pm 29.2 26.3 13.0 37 9.7 WNW 20 32 11 17 1010.1 1009.2 0.0
30/12:00pm 28.8 26.5 14.6 42 8.7 WNW 20 32 11 17 1010.3 1009.4 0.0
30/11:30am 27.8 24.4 14.8 45 8.0 WSW 26 35 14 19 1010.5 1009.6 0.0
30/11:00am 27.3 25.4 15.3 48 7.4 WNW 19 30 10 16 1010.9 1010.0 0.0
30/10:30am 26.1 24.7 15.5 52 6.5 WNW 17 24 9 13 1011.3 1010.4 0.0
30/10:00am 25.5 24.1 16.6 58 5.6 NW 19 24 10 13 1011.7 1010.8 0.0
30/09:30am 23.8 23.9 16.6 64 4.5 NNW 11 15 6 8 1012.1 1011.2 0.0
30/09:00am 22.6 22.8 15.7 65 4.2 NW 9 13 5 7 1012.5 1011.6 15.8
30/08:30am 21.2 21.1 16.0 72 3.2 NNW 11 17 6 9 1012.7 1011.8 15.8
30/08:00am 20.6 20.3 15.4 72 3.1 NNW 11 17 6 9 1012.7 1011.8 15.8
30/07:30am 19.8 20.0 15.7 77 2.5 NW 9 13 5 7 1012.8 1011.9 15.8
30/07:00am 19.3 18.9 15.2 77 2.4 WNW 11 13 6 7 1012.9 1012.0 15.8
30/06:30am 18.9 19.0 15.4 80 2.1 W 9 11 5 6 1012.9 1012.0 15.8
30/06:00am 17.4 17.9 14.9 85 1.5 NW 6 7 3 4 1012.6 1011.7 15.8
30/05:30am 17.5 17.7 14.6 83 1.7 WSW 7 11 4 6 1012.5 1011.6 15.8
30/05:00am 17.8 16.1 14.7 82 1.8 ENE 17 24 9 13 1011.8 1010.9 15.8
30/04:30am 18.0 14.6 14.7 81 1.9 NE 26 33 14 18 1011.1 1010.2 15.8
30/04:00am 18.2 16.6 15.1 82 1.8 E 17 20 9 11 1011.6 1010.7 15.8
30/03:30am 17.5 15.1 15.3 87 1.3 NE 22 30 12 16 1012.1 1011.2 15.8
30/03:00am 18.4 18.2 14.7 79 2.2 NNW 9 15 5 8 1013.4 1012.5 14.8
30/02:30am 18.6 16.4 14.9 79 2.2 SSE 20 26 11 14 1012.5 1011.6 9.2
30/02:00am 17.6 15.5 15.2 86 1.4 E 20 28 11 15 1012.2 1011.3 9.2
30/01:38am 17.8 13.8 16.3 91 0.9 SSE 32 37 17 20 1012.4 1011.5 7.4
30/01:30am 18.2 18.4 15.8 86 1.4 SW 9 17 5 9 1013.9 1013.0 4.2
30/01:00am 18.5 16.2 14.6 78 2.3 SSW 20 24 11 13 1012.9 1012.0 1.0
30/12:30am 20.0 16.6 12.5 62 4.3 SE 22 32 12 17 1011.4 1010.5 0.0
30/12:00am 20.4 17.0 12.4 60 4.6 SSE 22 28 12 15 1011.9 1011.0 0.0
 
Date/Time
WST
Temp
°C
App
Temp
°C
Dew
Point
Rel
Hum
%
Delta-T
°C
Wind Press
QNH
hPa
Press
MSL
hPa
Rain
since 9 am
mm
Dir
 
Spd
km/h
Gust
km/h
Spd
kts
Gust
kts
29/11:30pm 20.6 18.2 12.6 60 4.6 ESE 17 26 9 14 1012.0 1011.1 0.0
29/11:00pm 20.9 18.0 12.3 58 4.9 ESE 19 24 10 13 1012.4 1011.5 0.0
29/10:30pm 21.4 18.3 12.3 56 5.2 ESE 20 28 11 15 1012.8 1011.9 0.0
29/10:00pm 22.4 17.8 12.4 53 5.8 SE 28 37 15 20 1012.6 1011.7 0.0
29/09:30pm 23.1 19.7 12.4 51 6.2 S 22 28 12 15 1012.7 1011.8 0.0
29/09:00pm 23.8 19.2 12.4 48 6.6 S 28 33 15 18 1012.4 1011.5 0.0
29/08:30pm 24.8 19.8 12.1 45 7.4 S 30 39 16 21 1012.2 1011.3 0.0
29/08:00pm 25.9 21.1 11.6 40 8.3 S 28 35 15 19 1011.8 1010.9 0.0
29/07:30pm 27.0 21.8 11.5 38 9.0 S 30 39 16 21 1011.0 1010.1 0.0
29/07:00pm 29.0 23.9 10.6 32 10.6 S 28 35 15 19 1010.8 1009.9 0.0
29/06:30pm 31.5 27.2 5.1 19 14.1 S 17 22 9 12 1010.4 1009.5 0.0
29/06:00pm 32.7 27.7 4.5 17 15.0 S 20 30 11 16 1010.0 1009.1 0.0
29/05:30pm 33.2 27.5 3.1 15 15.7 SSW 22 32 12 17 1009.9 1009.0 0.0
29/05:00pm 33.6 25.9 2.4 14 16.2 SSW 32 43 17 23 1009.8 1008.9 0.0
29/04:30pm 34.4 27.4 2.0 13 16.7 SSW 28 43 15 23 1009.6 1008.7 0.0
29/04:00pm 34.7 28.5 2.3 13 16.9 S 24 39 13 21 1009.7 1008.8 0.0
29/03:30pm 35.9 28.4 0.9 11 17.9 WSW 30 41 16 22 1009.6 1008.7 0.0
29/03:17pm 34.8 27.5 0.0 11 17.4 SW 28 46 15 25 1009.6 1008.7 0.0
29/03:00pm 34.9 28.4 0.1 11 17.5 W 24 35 13 19 1009.6 1008.7 0.0
29/02:56pm 35.5 29.0 0.6 11 17.7 W 24 35 13 19 1009.7 1008.8 0.0
29/02:48pm 35.9 26.6 0.9 11 17.9 SW 39 44 21 24 1009.6 1008.7 0.0
29/02:30pm 35.9 28.0 0.9 11 17.9 WSW 32 46 17 25 1009.8 1008.9 0.0
29/02:00pm 34.6 26.0 -0.1 11 17.4 WSW 35 46 19 25 1010.1 1009.2 0.0
29/01:47pm 34.7 25.7 -0.1 11 17.4 WSW 37 44 20 24 1010.1 1009.2 0.0
29/01:30pm 35.7 27.0 -0.6 10 18.1 W 35 46 19 25 1010.1 1009.2 0.0
29/01:21pm 37.0 28.4 0.4 10 18.7 W 35 44 19 24 1010.1 1009.2 0.0
29/01:17pm 36.7 27.7 0.1 10 18.6 SW 37 46 20 25 1010.1 1009.2 0.0
29/01:00pm 35.3 28.2 -0.9 10 18.0 W 26 39 14 21 1010.1 1009.2 0.0
29/12:43pm 35.2 27.8 -1.0 10 17.9 W 28 37 15 20 1010.2 1009.3 0.0
29/12:30pm 35.2 31.4 -1.0 10 17.9 SW 9 19 5 10 1010.3 1009.4 0.0
29/12:00pm 36.3 30.7 -0.2 10 18.4 NW 19 30 10 16 1010.5 1009.6 0.0
29/11:30am 35.9 31.4 -0.5 10 18.2 WNW 13 24 7 13 1010.7 1009.8 0.0
29/11:00am 36.2 30.6 1.1 11 18.1 NW 20 32 11 17 1011.1 1010.2 0.0
29/10:30am 34.4 29.1 2.0 13 16.7 NNW 19 26 10 14 1011.8 1010.9 0.0
29/10:00am 33.4 27.6 2.3 14 16.0 N 22 37 12 20 1011.9 1011.0 0.0

Other Formats:

Comma delimited format used in spreadsheet applications
http://www.bom.gov.au/fwo/IDW60801/IDW60801.95634.axf

JavaScript Object Notation format (JSON) in row-major order
http://www.bom.gov.au/fwo/IDW60801/IDW60801.95634.json